sensor_id;sensor_type;location;lat;lon;timestamp;P1;durP1;ratioP1;P2;durP2;ratioP2
21860;SDS011;11095;48.066;8.540;2022-12-29T00:01:52;4.25;;;2.97;;
21860;SDS011;11095;48.066;8.540;2022-12-29T00:04:18;4.95;;;2.83;;
21860;SDS011;11095;48.066;8.540;2022-12-29T00:06:44;3.67;;;2.75;;
21860;SDS011;11095;48.066;8.540;2022-12-29T00:09:11;4.20;;;2.67;;
21860;SDS011;11095;48.066;8.540;2022-12-29T00:11:37;4.18;;;2.60;;
21860;SDS011;11095;48.066;8.540;2022-12-29T00:14:03;4.22;;;2.88;;
21860;SDS011;11095;48.066;8.540;2022-12-29T00:16:47;4.15;;;2.88;;
21860;SDS011;11095;48.066;8.540;2022-12-29T00:19:13;5.57;;;2.88;;
21860;SDS011;11095;48.066;8.540;2022-12-29T00:21:57;2.83;;;2.47;;
21860;SDS011;11095;48.066;8.540;2022-12-29T00:24:42;4.03;;;2.50;;
21860;SDS011;11095;48.066;8.540;2022-12-29T00:27:29;3.42;;;2.65;;
21860;SDS011;11095;48.066;8.540;2022-12-29T00:30:18;4.05;;;2.75;;
21860;SDS011;11095;48.066;8.540;2022-12-29T00:36:01;5.72;;;2.83;;
21860;SDS011;11095;48.066;8.540;2022-12-29T00:38:34;5.53;;;3.50;;
21860;SDS011;11095;48.066;8.540;2022-12-29T00:41:21;4.15;;;3.15;;
21860;SDS011;11095;48.066;8.540;2022-12-29T00:44:05;4.05;;;3.08;;
21860;SDS011;11095;48.066;8.540;2022-12-29T00:46:41;5.57;;;3.20;;
21860;SDS011;11095;48.066;8.540;2022-12-29T00:49:09;4.82;;;2.97;;
21860;SDS011;11095;48.066;8.540;2022-12-29T00:51:54;5.03;;;3.00;;
21860;SDS011;11095;48.066;8.540;2022-12-29T00:54:21;4.57;;;2.90;;
21860;SDS011;11095;48.066;8.540;2022-12-29T00:56:47;4.78;;;2.88;;
21860;SDS011;11095;48.066;8.540;2022-12-29T00:59:13;4.20;;;2.72;;
21860;SDS011;11095;48.066;8.540;2022-12-29T01:01:39;3.83;;;2.80;;
21860;SDS011;11095;48.066;8.540;2022-12-29T01:04:06;5.05;;;2.80;;
21860;SDS011;11095;48.066;8.540;2022-12-29T01:06:32;3.90;;;2.78;;
21860;SDS011;11095;48.066;8.540;2022-12-29T01:08:58;3.75;;;2.72;;
21860;SDS011;11095;48.066;8.540;2022-12-29T01:11:43;3.92;;;2.60;;
21860;SDS011;11095;48.066;8.540;2022-12-29T01:14:08;5.03;;;2.80;;
21860;SDS011;11095;48.066;8.540;2022-12-29T01:16:34;3.40;;;2.50;;
21860;SDS011;11095;48.066;8.540;2022-12-29T01:19:01;3.30;;;2.60;;
21860;SDS011;11095;48.066;8.540;2022-12-29T01:21:28;4.43;;;2.80;;
21860;SDS011;11095;48.066;8.540;2022-12-29T01:23:53;3.17;;;2.40;;
21860;SDS011;11095;48.066;8.540;2022-12-29T01:26:19;3.10;;;2.35;;
21860;SDS011;11095;48.066;8.540;2022-12-29T01:28:45;3.00;;;2.40;;
21860;SDS011;11095;48.066;8.540;2022-12-29T01:31:11;3.97;;;2.45;;
21860;SDS011;11095;48.066;8.540;2022-12-29T01:33:38;3.92;;;2.80;;
21860;SDS011;11095;48.066;8.540;2022-12-29T01:36:05;4.15;;;2.60;;
21860;SDS011;11095;48.066;8.540;2022-12-29T01:38:33;3.55;;;2.30;;
21860;SDS011;11095;48.066;8.540;2022-12-29T01:40:59;3.75;;;2.80;;
21860;SDS011;11095;48.066;8.540;2022-12-29T01:46:36;4.30;;;2.58;;
21860;SDS011;11095;48.066;8.540;2022-12-29T01:51:33;5.07;;;2.92;;
21860;SDS011;11095;48.066;8.540;2022-12-29T01:54:02;3.92;;;2.55;;
21860;SDS011;11095;48.066;8.540;2022-12-29T01:56:34;4.38;;;2.55;;
21860;SDS011;11095;48.066;8.540;2022-12-29T01:59:02;3.05;;;2.42;;
21860;SDS011;11095;48.066;8.540;2022-12-29T02:01:31;4.72;;;2.72;;
21860;SDS011;11095;48.066;8.540;2022-12-29T02:03:57;4.20;;;2.47;;
21860;SDS011;11095;48.066;8.540;2022-12-29T02:06:25;4.25;;;2.40;;
21860;SDS011;11095;48.066;8.540;2022-12-29T02:09:02;3.08;;;2.38;;
21860;SDS011;11095;48.066;8.540;2022-12-29T02:11:28;4.85;;;2.72;;
21860;SDS011;11095;48.066;8.540;2022-12-29T02:13:55;3.47;;;2.40;;
21860;SDS011;11095;48.066;8.540;2022-12-29T02:25:06;3.97;;;2.30;;
21860;SDS011;11095;48.066;8.540;2022-12-29T02:27:45;3.90;;;2.50;;
21860;SDS011;11095;48.066;8.540;2022-12-29T02:35:37;3.60;;;2.10;;
21860;SDS011;11095;48.066;8.540;2022-12-29T02:46:17;2.70;;;2.05;;
21860;SDS011;11095;48.066;8.540;2022-12-29T02:51:51;3.60;;;2.00;;
21860;SDS011;11095;48.066;8.540;2022-12-29T02:54:23;2.72;;;2.00;;
21860;SDS011;11095;48.066;8.540;2022-12-29T02:59:45;3.78;;;2.05;;
21860;SDS011;11095;48.066;8.540;2022-12-29T03:18:51;3.35;;;2.00;;
21860;SDS011;11095;48.066;8.540;2022-12-29T03:24:31;4.75;;;2.13;;
21860;SDS011;11095;48.066;8.540;2022-12-29T03:29:27;3.15;;;1.67;;
21860;SDS011;11095;48.066;8.540;2022-12-29T03:31:55;2.95;;;1.80;;
21860;SDS011;11095;48.066;8.540;2022-12-29T03:34:23;2.88;;;1.60;;
21860;SDS011;11095;48.066;8.540;2022-12-29T03:36:53;3.15;;;1.67;;
21860;SDS011;11095;48.066;8.540;2022-12-29T03:39:27;3.67;;;1.85;;
21860;SDS011;11095;48.066;8.540;2022-12-29T03:42:01;3.13;;;2.05;;
21860;SDS011;11095;48.066;8.540;2022-12-29T03:44:38;2.58;;;1.67;;
21860;SDS011;11095;48.066;8.540;2022-12-29T03:47:06;4.05;;;2.05;;
21860;SDS011;11095;48.066;8.540;2022-12-29T03:49:32;2.90;;;2.25;;
21860;SDS011;11095;48.066;8.540;2022-12-29T03:51:58;3.33;;;1.80;;
21860;SDS011;11095;48.066;8.540;2022-12-29T03:54:24;2.97;;;1.80;;
21860;SDS011;11095;48.066;8.540;2022-12-29T03:56:50;3.42;;;1.65;;
21860;SDS011;11095;48.066;8.540;2022-12-29T03:59:15;2.90;;;2.00;;
21860;SDS011;11095;48.066;8.540;2022-12-29T04:01:41;2.85;;;1.90;;
21860;SDS011;11095;48.066;8.540;2022-12-29T04:04:07;3.58;;;2.00;;
21860;SDS011;11095;48.066;8.540;2022-12-29T04:06:33;3.90;;;2.10;;
21860;SDS011;11095;48.066;8.540;2022-12-29T04:08:59;2.10;;;1.60;;
21860;SDS011;11095;48.066;8.540;2022-12-29T04:11:25;2.80;;;1.73;;
21860;SDS011;11095;48.066;8.540;2022-12-29T04:13:50;3.13;;;1.90;;
21860;SDS011;11095;48.066;8.540;2022-12-29T04:16:16;2.25;;;1.85;;
21860;SDS011;11095;48.066;8.540;2022-12-29T04:18:42;2.88;;;1.65;;
21860;SDS011;11095;48.066;8.540;2022-12-29T04:21:07;4.03;;;1.70;;
21860;SDS011;11095;48.066;8.540;2022-12-29T04:23:34;4.10;;;1.70;;
21860;SDS011;11095;48.066;8.540;2022-12-29T04:26:02;4.25;;;2.00;;
21860;SDS011;11095;48.066;8.540;2022-12-29T04:28:28;4.80;;;1.90;;
21860;SDS011;11095;48.066;8.540;2022-12-29T04:30:54;2.63;;;1.80;;
21860;SDS011;11095;48.066;8.540;2022-12-29T04:33:20;3.40;;;2.00;;
21860;SDS011;11095;48.066;8.540;2022-12-29T04:35:46;2.70;;;1.70;;
21860;SDS011;11095;48.066;8.540;2022-12-29T04:38:12;3.40;;;2.15;;
21860;SDS011;11095;48.066;8.540;2022-12-29T04:40:39;2.72;;;1.80;;
21860;SDS011;11095;48.066;8.540;2022-12-29T04:43:05;4.25;;;1.80;;
21860;SDS011;11095;48.066;8.540;2022-12-29T04:45:31;3.40;;;2.10;;
21860;SDS011;11095;48.066;8.540;2022-12-29T04:47:57;2.80;;;1.83;;
21860;SDS011;11095;48.066;8.540;2022-12-29T04:50:22;2.47;;;1.70;;
21860;SDS011;11095;48.066;8.540;2022-12-29T04:52:48;2.65;;;1.90;;
21860;SDS011;11095;48.066;8.540;2022-12-29T04:55:14;3.15;;;1.85;;
21860;SDS011;11095;48.066;8.540;2022-12-29T04:57:39;2.85;;;1.80;;
21860;SDS011;11095;48.066;8.540;2022-12-29T05:00:05;3.00;;;1.98;;
21860;SDS011;11095;48.066;8.540;2022-12-29T05:02:31;4.82;;;2.08;;
21860;SDS011;11095;48.066;8.540;2022-12-29T05:04:57;3.10;;;2.08;;
21860;SDS011;11095;48.066;8.540;2022-12-29T05:07:23;5.47;;;2.22;;
21860;SDS011;11095;48.066;8.540;2022-12-29T05:09:50;2.75;;;1.95;;
21860;SDS011;11095;48.066;8.540;2022-12-29T05:12:15;4.55;;;2.30;;
21860;SDS011;11095;48.066;8.540;2022-12-29T05:14:41;3.97;;;2.20;;
21860;SDS011;11095;48.066;8.540;2022-12-29T05:17:07;2.97;;;1.95;;
21860;SDS011;11095;48.066;8.540;2022-12-29T05:19:32;3.78;;;1.90;;
21860;SDS011;11095;48.066;8.540;2022-12-29T05:21:58;3.03;;;1.77;;
21860;SDS011;11095;48.066;8.540;2022-12-29T05:24:24;2.80;;;1.90;;
21860;SDS011;11095;48.066;8.540;2022-12-29T05:26:49;2.90;;;1.98;;
21860;SDS011;11095;48.066;8.540;2022-12-29T05:29:15;4.00;;;2.10;;
21860;SDS011;11095;48.066;8.540;2022-12-29T05:31:40;3.10;;;1.92;;
21860;SDS011;11095;48.066;8.540;2022-12-29T05:34:06;3.33;;;1.95;;
21860;SDS011;11095;48.066;8.540;2022-12-29T05:36:31;3.03;;;2.00;;
21860;SDS011;11095;48.066;8.540;2022-12-29T05:38:57;2.55;;;2.00;;
21860;SDS011;11095;48.066;8.540;2022-12-29T05:41:23;3.80;;;1.90;;
21860;SDS011;11095;48.066;8.540;2022-12-29T05:43:49;3.55;;;2.30;;
21860;SDS011;11095;48.066;8.540;2022-12-29T05:46:14;3.72;;;2.13;;
21860;SDS011;11095;48.066;8.540;2022-12-29T05:48:40;3.25;;;2.22;;
21860;SDS011;11095;48.066;8.540;2022-12-29T05:51:05;4.00;;;2.15;;
21860;SDS011;11095;48.066;8.540;2022-12-29T05:53:31;3.05;;;1.88;;
21860;SDS011;11095;48.066;8.540;2022-12-29T05:55:57;2.30;;;1.65;;
21860;SDS011;11095;48.066;8.540;2022-12-29T05:58:23;3.20;;;2.17;;
21860;SDS011;11095;48.066;8.540;2022-12-29T06:00:48;3.47;;;1.90;;
21860;SDS011;11095;48.066;8.540;2022-12-29T06:03:14;4.15;;;1.98;;
21860;SDS011;11095;48.066;8.540;2022-12-29T06:05:39;4.38;;;2.00;;
21860;SDS011;11095;48.066;8.540;2022-12-29T06:08:05;3.58;;;2.20;;
21860;SDS011;11095;48.066;8.540;2022-12-29T06:10:31;3.17;;;1.90;;
21860;SDS011;11095;48.066;8.540;2022-12-29T06:12:57;4.93;;;2.20;;
21860;SDS011;11095;48.066;8.540;2022-12-29T06:15:22;2.33;;;1.77;;
21860;SDS011;11095;48.066;8.540;2022-12-29T06:17:48;4.28;;;1.70;;
21860;SDS011;11095;48.066;8.540;2022-12-29T06:20:14;2.83;;;1.70;;
21860;SDS011;11095;48.066;8.540;2022-12-29T06:22:39;2.60;;;1.73;;
21860;SDS011;11095;48.066;8.540;2022-12-29T06:25:05;4.00;;;1.80;;
21860;SDS011;11095;48.066;8.540;2022-12-29T06:27:31;2.40;;;1.80;;
21860;SDS011;11095;48.066;8.540;2022-12-29T06:29:57;3.25;;;1.55;;
21860;SDS011;11095;48.066;8.540;2022-12-29T06:32:22;4.03;;;1.80;;
21860;SDS011;11095;48.066;8.540;2022-12-29T06:34:48;3.65;;;1.67;;
21860;SDS011;11095;48.066;8.540;2022-12-29T06:37:14;4.22;;;1.65;;
21860;SDS011;11095;48.066;8.540;2022-12-29T06:39:39;4.43;;;1.70;;
21860;SDS011;11095;48.066;8.540;2022-12-29T06:42:05;2.70;;;1.67;;
21860;SDS011;11095;48.066;8.540;2022-12-29T06:44:31;2.72;;;1.50;;
21860;SDS011;11095;48.066;8.540;2022-12-29T06:46:56;2.88;;;1.73;;
21860;SDS011;11095;48.066;8.540;2022-12-29T06:49:22;4.18;;;1.52;;
21860;SDS011;11095;48.066;8.540;2022-12-29T06:51:48;3.97;;;1.90;;
21860;SDS011;11095;48.066;8.540;2022-12-29T06:54:13;3.75;;;2.00;;
21860;SDS011;11095;48.066;8.540;2022-12-29T06:56:39;3.78;;;2.13;;
21860;SDS011;11095;48.066;8.540;2022-12-29T06:59:05;3.83;;;2.00;;
21860;SDS011;11095;48.066;8.540;2022-12-29T07:01:31;4.75;;;2.10;;
21860;SDS011;11095;48.066;8.540;2022-12-29T07:03:57;3.20;;;1.80;;
21860;SDS011;11095;48.066;8.540;2022-12-29T07:06:23;5.20;;;2.05;;
21860;SDS011;11095;48.066;8.540;2022-12-29T07:08:48;4.38;;;2.10;;
21860;SDS011;11095;48.066;8.540;2022-12-29T07:11:14;3.90;;;2.40;;
21860;SDS011;11095;48.066;8.540;2022-12-29T07:13:40;6.13;;;2.38;;
21860;SDS011;11095;48.066;8.540;2022-12-29T07:16:06;5.40;;;2.75;;
21860;SDS011;11095;48.066;8.540;2022-12-29T07:18:32;5.35;;;2.72;;
21860;SDS011;11095;48.066;8.540;2022-12-29T07:20:58;5.13;;;2.60;;
21860;SDS011;11095;48.066;8.540;2022-12-29T07:23:24;5.13;;;2.75;;
21860;SDS011;11095;48.066;8.540;2022-12-29T07:25:50;4.80;;;2.60;;
21860;SDS011;11095;48.066;8.540;2022-12-29T07:28:23;6.10;;;2.67;;
21860;SDS011;11095;48.066;8.540;2022-12-29T07:30:48;4.70;;;2.40;;
21860;SDS011;11095;48.066;8.540;2022-12-29T07:33:14;4.43;;;2.45;;
21860;SDS011;11095;48.066;8.540;2022-12-29T07:35:40;4.72;;;2.67;;
21860;SDS011;11095;48.066;8.540;2022-12-29T07:38:05;3.63;;;2.50;;
21860;SDS011;11095;48.066;8.540;2022-12-29T07:40:31;3.17;;;2.30;;
21860;SDS011;11095;48.066;8.540;2022-12-29T07:42:56;3.50;;;2.30;;
21860;SDS011;11095;48.066;8.540;2022-12-29T07:45:22;4.35;;;2.10;;
21860;SDS011;11095;48.066;8.540;2022-12-29T07:47:48;3.63;;;2.10;;
21860;SDS011;11095;48.066;8.540;2022-12-29T07:50:14;3.53;;;2.15;;
21860;SDS011;11095;48.066;8.540;2022-12-29T07:52:40;4.22;;;2.20;;
21860;SDS011;11095;48.066;8.540;2022-12-29T07:55:06;4.88;;;2.40;;
21860;SDS011;11095;48.066;8.540;2022-12-29T07:57:31;3.78;;;2.33;;
21860;SDS011;11095;48.066;8.540;2022-12-29T07:59:57;2.85;;;1.95;;
21860;SDS011;11095;48.066;8.540;2022-12-29T08:02:23;4.53;;;2.33;;
21860;SDS011;11095;48.066;8.540;2022-12-29T08:04:51;3.47;;;2.25;;
21860;SDS011;11095;48.066;8.540;2022-12-29T08:07:16;5.38;;;2.70;;
21860;SDS011;11095;48.066;8.540;2022-12-29T08:09:42;4.75;;;3.05;;
21860;SDS011;11095;48.066;8.540;2022-12-29T08:12:08;3.15;;;2.60;;
21860;SDS011;11095;48.066;8.540;2022-12-29T08:14:37;6.10;;;2.60;;
21860;SDS011;11095;48.066;8.540;2022-12-29T08:17:03;4.85;;;2.50;;
21860;SDS011;11095;48.066;8.540;2022-12-29T08:19:28;5.20;;;2.80;;
21860;SDS011;11095;48.066;8.540;2022-12-29T08:21:54;4.35;;;2.42;;
21860;SDS011;11095;48.066;8.540;2022-12-29T08:24:20;3.88;;;2.83;;
21860;SDS011;11095;48.066;8.540;2022-12-29T08:26:45;4.60;;;2.85;;
21860;SDS011;11095;48.066;8.540;2022-12-29T08:29:11;6.43;;;2.88;;
21860;SDS011;11095;48.066;8.540;2022-12-29T08:31:37;4.25;;;2.65;;
21860;SDS011;11095;48.066;8.540;2022-12-29T08:34:02;3.85;;;2.67;;
21860;SDS011;11095;48.066;8.540;2022-12-29T08:36:28;4.13;;;2.92;;
21860;SDS011;11095;48.066;8.540;2022-12-29T08:38:55;4.30;;;2.58;;
21860;SDS011;11095;48.066;8.540;2022-12-29T08:41:21;4.82;;;2.50;;
21860;SDS011;11095;48.066;8.540;2022-12-29T08:43:47;3.95;;;2.65;;
21860;SDS011;11095;48.066;8.540;2022-12-29T08:46:14;4.53;;;2.97;;
21860;SDS011;11095;48.066;8.540;2022-12-29T08:48:40;5.15;;;2.90;;
21860;SDS011;11095;48.066;8.540;2022-12-29T08:51:06;4.40;;;3.22;;
21860;SDS011;11095;48.066;8.540;2022-12-29T08:53:32;4.40;;;2.80;;
21860;SDS011;11095;48.066;8.540;2022-12-29T08:55:59;4.80;;;2.80;;
21860;SDS011;11095;48.066;8.540;2022-12-29T08:58:25;3.78;;;2.80;;
21860;SDS011;11095;48.066;8.540;2022-12-29T09:00:52;5.80;;;2.78;;
21860;SDS011;11095;48.066;8.540;2022-12-29T09:03:18;4.45;;;3.00;;
21860;SDS011;11095;48.066;8.540;2022-12-29T09:05:47;4.18;;;2.78;;
21860;SDS011;11095;48.066;8.540;2022-12-29T09:10:40;6.93;;;3.00;;
21860;SDS011;11095;48.066;8.540;2022-12-29T09:13:06;4.10;;;2.80;;
21860;SDS011;11095;48.066;8.540;2022-12-29T09:15:31;3.20;;;2.85;;
21860;SDS011;11095;48.066;8.540;2022-12-29T09:17:57;4.50;;;2.70;;
21860;SDS011;11095;48.066;8.540;2022-12-29T09:20:24;4.13;;;2.90;;
21860;SDS011;11095;48.066;8.540;2022-12-29T09:22:49;4.10;;;2.10;;
21860;SDS011;11095;48.066;8.540;2022-12-29T09:25:15;4.78;;;2.03;;
21860;SDS011;11095;48.066;8.540;2022-12-29T09:27:41;2.35;;;1.80;;
21860;SDS011;11095;48.066;8.540;2022-12-29T09:30:08;3.58;;;1.75;;
21860;SDS011;11095;48.066;8.540;2022-12-29T09:32:35;3.45;;;2.35;;
21860;SDS011;11095;48.066;8.540;2022-12-29T09:35:02;2.35;;;2.00;;
21860;SDS011;11095;48.066;8.540;2022-12-29T09:37:28;4.22;;;2.63;;
21860;SDS011;11095;48.066;8.540;2022-12-29T09:39:53;5.40;;;3.47;;
21860;SDS011;11095;48.066;8.540;2022-12-29T09:45:11;5.60;;;2.55;;
21860;SDS011;11095;48.066;8.540;2022-12-29T09:47:42;5.32;;;2.20;;
21860;SDS011;11095;48.066;8.540;2022-12-29T09:55:41;5.45;;;2.33;;
21860;SDS011;11095;48.066;8.540;2022-12-29T10:00:54;3.40;;;2.50;;
21860;SDS011;11095;48.066;8.540;2022-12-29T10:03:36;3.33;;;2.60;;
21860;SDS011;11095;48.066;8.540;2022-12-29T10:06:13;4.53;;;3.28;;
21860;SDS011;11095;48.066;8.540;2022-12-29T10:17:34;3.50;;;2.58;;
21860;SDS011;11095;48.066;8.540;2022-12-29T10:20:44;3.50;;;2.25;;
21860;SDS011;11095;48.066;8.540;2022-12-29T10:23:30;6.18;;;3.33;;
21860;SDS011;11095;48.066;8.540;2022-12-29T10:26:00;3.30;;;2.60;;
21860;SDS011;11095;48.066;8.540;2022-12-29T10:30:59;4.90;;;2.60;;
21860;SDS011;11095;48.066;8.540;2022-12-29T10:33:30;4.70;;;3.05;;
21860;SDS011;11095;48.066;8.540;2022-12-29T10:36:03;4.88;;;3.25;;
21860;SDS011;11095;48.066;8.540;2022-12-29T10:43:45;4.93;;;2.70;;
21860;SDS011;11095;48.066;8.540;2022-12-29T10:46:20;5.55;;;2.95;;
21860;SDS011;11095;48.066;8.540;2022-12-29T10:48:52;4.07;;;2.58;;
21860;SDS011;11095;48.066;8.540;2022-12-29T10:51:20;5.70;;;2.78;;
21860;SDS011;11095;48.066;8.540;2022-12-29T10:53:54;4.93;;;2.80;;
21860;SDS011;11095;48.066;8.540;2022-12-29T10:56:38;6.38;;;2.78;;
21860;SDS011;11095;48.066;8.540;2022-12-29T10:59:16;4.40;;;2.50;;
21860;SDS011;11095;48.066;8.540;2022-12-29T11:07:27;2.05;;;1.70;;
21860;SDS011;11095;48.066;8.540;2022-12-29T11:09:55;3.65;;;1.70;;
21860;SDS011;11095;48.066;8.540;2022-12-29T11:12:40;2.05;;;1.45;;
21860;SDS011;11095;48.066;8.540;2022-12-29T11:15:19;4.28;;;1.92;;
21860;SDS011;11095;48.066;8.540;2022-12-29T11:22:49;6.13;;;1.80;;
21860;SDS011;11095;48.066;8.540;2022-12-29T11:25:17;2.38;;;1.55;;
21860;SDS011;11095;48.066;8.540;2022-12-29T11:27:54;2.80;;;1.45;;
21860;SDS011;11095;48.066;8.540;2022-12-29T11:30:40;2.50;;;1.45;;
21860;SDS011;11095;48.066;8.540;2022-12-29T11:33:07;4.50;;;1.50;;
21860;SDS011;11095;48.066;8.540;2022-12-29T11:35:43;1.90;;;1.30;;
21860;SDS011;11095;48.066;8.540;2022-12-29T11:38:23;2.30;;;1.20;;
21860;SDS011;11095;48.066;8.540;2022-12-29T11:40:56;1.73;;;1.30;;
21860;SDS011;11095;48.066;8.540;2022-12-29T11:43:28;2.08;;;1.20;;
21860;SDS011;11095;48.066;8.540;2022-12-29T11:45:58;1.48;;;1.13;;
21860;SDS011;11095;48.066;8.540;2022-12-29T11:48:25;2.13;;;1.48;;
21860;SDS011;11095;48.066;8.540;2022-12-29T11:50:55;2.83;;;1.35;;
21860;SDS011;11095;48.066;8.540;2022-12-29T11:53:26;3.03;;;1.30;;
21860;SDS011;11095;48.066;8.540;2022-12-29T11:56:02;1.50;;;1.27;;
21860;SDS011;11095;48.066;8.540;2022-12-29T11:58:33;2.72;;;1.40;;
21860;SDS011;11095;48.066;8.540;2022-12-29T12:01:02;1.57;;;1.37;;
21860;SDS011;11095;48.066;8.540;2022-12-29T12:03:54;1.73;;;1.45;;
21860;SDS011;11095;48.066;8.540;2022-12-29T12:06:35;2.08;;;1.35;;
21860;SDS011;11095;48.066;8.540;2022-12-29T12:15:22;2.25;;;1.20;;
21860;SDS011;11095;48.066;8.540;2022-12-29T12:18:10;1.60;;;1.30;;
21860;SDS011;11095;48.066;8.540;2022-12-29T12:23:20;3.15;;;1.23;;
21860;SDS011;11095;48.066;8.540;2022-12-29T12:28:37;1.95;;;1.40;;
21860;SDS011;11095;48.066;8.540;2022-12-29T12:31:06;2.88;;;1.48;;
21860;SDS011;11095;48.066;8.540;2022-12-29T12:33:57;1.70;;;1.20;;
21860;SDS011;11095;48.066;8.540;2022-12-29T12:55:35;1.92;;;1.20;;
21860;SDS011;11095;48.066;8.540;2022-12-29T13:00:44;1.33;;;1.10;;
21860;SDS011;11095;48.066;8.540;2022-12-29T13:19:47;1.55;;;1.10;;
21860;SDS011;11095;48.066;8.540;2022-12-29T13:27:54;1.80;;;1.27;;
21860;SDS011;11095;48.066;8.540;2022-12-29T13:30:29;1.60;;;0.88;;
21860;SDS011;11095;48.066;8.540;2022-12-29T13:33:16;1.70;;;0.98;;
21860;SDS011;11095;48.066;8.540;2022-12-29T13:38:39;2.13;;;1.33;;
21860;SDS011;11095;48.066;8.540;2022-12-29T13:41:18;3.05;;;1.70;;
21860;SDS011;11095;48.066;8.540;2022-12-29T13:44:02;1.92;;;1.05;;
21860;SDS011;11095;48.066;8.540;2022-12-29T13:46:40;1.95;;;1.33;;
21860;SDS011;11095;48.066;8.540;2022-12-29T13:51:48;1.52;;;1.00;;
21860;SDS011;11095;48.066;8.540;2022-12-29T14:00:20;1.30;;;0.95;;
21860;SDS011;11095;48.066;8.540;2022-12-29T14:05:31;1.42;;;1.10;;
21860;SDS011;11095;48.066;8.540;2022-12-29T14:07:58;1.60;;;1.02;;
21860;SDS011;11095;48.066;8.540;2022-12-29T14:10:27;1.98;;;1.10;;
21860;SDS011;11095;48.066;8.540;2022-12-29T14:15:50;2.03;;;1.42;;
21860;SDS011;11095;48.066;8.540;2022-12-29T14:18:19;2.65;;;1.60;;
21860;SDS011;11095;48.066;8.540;2022-12-29T14:23:27;1.50;;;1.17;;
21860;SDS011;11095;48.066;8.540;2022-12-29T14:28:35;1.77;;;1.20;;
21860;SDS011;11095;48.066;8.540;2022-12-29T14:33:40;1.23;;;0.90;;
21860;SDS011;11095;48.066;8.540;2022-12-29T14:36:32;2.22;;;1.50;;
21860;SDS011;11095;48.066;8.540;2022-12-29T14:39:00;1.50;;;1.00;;
21860;SDS011;11095;48.066;8.540;2022-12-29T14:41:33;3.03;;;1.30;;
21860;SDS011;11095;48.066;8.540;2022-12-29T14:49:20;1.95;;;1.00;;
21860;SDS011;11095;48.066;8.540;2022-12-29T14:51:49;1.20;;;1.08;;
21860;SDS011;11095;48.066;8.540;2022-12-29T14:57:05;1.83;;;1.10;;
21860;SDS011;11095;48.066;8.540;2022-12-29T14:59:34;1.63;;;1.10;;
21860;SDS011;11095;48.066;8.540;2022-12-29T15:02:04;1.73;;;1.35;;
21860;SDS011;11095;48.066;8.540;2022-12-29T15:04:47;1.77;;;1.30;;
21860;SDS011;11095;48.066;8.540;2022-12-29T15:07:13;1.67;;;1.17;;
21860;SDS011;11095;48.066;8.540;2022-12-29T15:09:41;2.30;;;1.40;;
21860;SDS011;11095;48.066;8.540;2022-12-29T15:14:55;1.50;;;1.35;;
21860;SDS011;11095;48.066;8.540;2022-12-29T15:17:26;2.25;;;1.58;;
21860;SDS011;11095;48.066;8.540;2022-12-29T15:19:53;3.05;;;1.40;;
21860;SDS011;11095;48.066;8.540;2022-12-29T15:22:19;1.27;;;1.17;;
21860;SDS011;11095;48.066;8.540;2022-12-29T15:24:45;1.38;;;1.23;;
21860;SDS011;11095;48.066;8.540;2022-12-29T15:27:15;2.95;;;1.30;;
21860;SDS011;11095;48.066;8.540;2022-12-29T15:29:44;2.30;;;1.10;;
21860;SDS011;11095;48.066;8.540;2022-12-29T15:34:56;2.58;;;1.90;;
21860;SDS011;11095;48.066;8.540;2022-12-29T15:37:31;4.60;;;3.28;;
21860;SDS011;11095;48.066;8.540;2022-12-29T15:40:00;2.95;;;2.10;;
21860;SDS011;11095;48.066;8.540;2022-12-29T15:45:04;2.13;;;1.70;;
21860;SDS011;11095;48.066;8.540;2022-12-29T15:47:32;2.03;;;1.60;;
21860;SDS011;11095;48.066;8.540;2022-12-29T15:50:01;1.83;;;1.40;;
21860;SDS011;11095;48.066;8.540;2022-12-29T15:52:45;1.80;;;1.27;;
21860;SDS011;11095;48.066;8.540;2022-12-29T15:55:21;13.52;;;8.02;;
21860;SDS011;11095;48.066;8.540;2022-12-29T15:57:57;2.35;;;1.90;;
21860;SDS011;11095;48.066;8.540;2022-12-29T16:00:25;1.63;;;1.40;;
21860;SDS011;11095;48.066;8.540;2022-12-29T16:02:55;2.45;;;1.50;;
21860;SDS011;11095;48.066;8.540;2022-12-29T16:05:24;2.22;;;1.42;;
21860;SDS011;11095;48.066;8.540;2022-12-29T16:07:57;3.78;;;1.50;;
21860;SDS011;11095;48.066;8.540;2022-12-29T16:10:30;2.83;;;1.42;;
21860;SDS011;11095;48.066;8.540;2022-12-29T16:13:17;4.53;;;1.70;;
21860;SDS011;11095;48.066;8.540;2022-12-29T16:15:49;3.88;;;1.77;;
21860;SDS011;11095;48.066;8.540;2022-12-29T16:18:21;2.85;;;1.60;;
21860;SDS011;11095;48.066;8.540;2022-12-29T16:20:50;2.15;;;1.40;;
21860;SDS011;11095;48.066;8.540;2022-12-29T16:23:21;2.53;;;1.80;;
21860;SDS011;11095;48.066;8.540;2022-12-29T16:25:50;3.80;;;2.35;;
21860;SDS011;11095;48.066;8.540;2022-12-29T16:28:19;3.60;;;2.40;;
21860;SDS011;11095;48.066;8.540;2022-12-29T16:31:03;3.08;;;1.90;;
21860;SDS011;11095;48.066;8.540;2022-12-29T16:33:38;3.53;;;2.03;;
21860;SDS011;11095;48.066;8.540;2022-12-29T16:41:55;4.10;;;2.00;;
21860;SDS011;11095;48.066;8.540;2022-12-29T16:44:26;2.95;;;2.10;;
21860;SDS011;11095;48.066;8.540;2022-12-29T16:49:26;4.03;;;2.88;;
21860;SDS011;11095;48.066;8.540;2022-12-29T16:51:53;3.30;;;2.60;;
21860;SDS011;11095;48.066;8.540;2022-12-29T16:54:26;4.95;;;3.08;;
21860;SDS011;11095;48.066;8.540;2022-12-29T16:56:56;5.32;;;3.35;;
21860;SDS011;11095;48.066;8.540;2022-12-29T16:59:32;4.55;;;3.25;;
21860;SDS011;11095;48.066;8.540;2022-12-29T17:02:01;3.78;;;3.13;;
21860;SDS011;11095;48.066;8.540;2022-12-29T17:04:32;3.70;;;3.28;;
21860;SDS011;11095;48.066;8.540;2022-12-29T17:06:58;4.10;;;2.78;;
21860;SDS011;11095;48.066;8.540;2022-12-29T17:09:27;4.10;;;2.90;;
21860;SDS011;11095;48.066;8.540;2022-12-29T17:11:54;3.75;;;2.53;;
21860;SDS011;11095;48.066;8.540;2022-12-29T17:17:16;2.65;;;2.10;;
21860;SDS011;11095;48.066;8.540;2022-12-29T17:19:46;2.97;;;1.70;;
21860;SDS011;11095;48.066;8.540;2022-12-29T17:22:19;3.58;;;2.17;;
21860;SDS011;11095;48.066;8.540;2022-12-29T17:24:49;2.92;;;2.20;;
21860;SDS011;11095;48.066;8.540;2022-12-29T17:27:22;2.97;;;2.20;;
21860;SDS011;11095;48.066;8.540;2022-12-29T17:30:24;2.83;;;2.10;;
21860;SDS011;11095;48.066;8.540;2022-12-29T17:32:53;3.55;;;2.38;;
21860;SDS011;11095;48.066;8.540;2022-12-29T17:35:24;3.83;;;2.90;;
21860;SDS011;11095;48.066;8.540;2022-12-29T17:37:50;3.03;;;2.20;;
21860;SDS011;11095;48.066;8.540;2022-12-29T17:40:17;3.80;;;2.65;;
21860;SDS011;11095;48.066;8.540;2022-12-29T17:42:48;4.82;;;3.40;;
21860;SDS011;11095;48.066;8.540;2022-12-29T17:45:20;4.45;;;3.30;;
21860;SDS011;11095;48.066;8.540;2022-12-29T17:47:53;2.83;;;2.25;;
21860;SDS011;11095;48.066;8.540;2022-12-29T17:50:21;4.28;;;2.70;;
21860;SDS011;11095;48.066;8.540;2022-12-29T17:52:51;4.35;;;2.50;;
21860;SDS011;11095;48.066;8.540;2022-12-29T17:55:19;5.68;;;3.35;;
21860;SDS011;11095;48.066;8.540;2022-12-29T17:57:46;4.07;;;2.75;;
21860;SDS011;11095;48.066;8.540;2022-12-29T18:02:52;5.32;;;3.00;;
21860;SDS011;11095;48.066;8.540;2022-12-29T18:05:25;4.35;;;2.90;;
21860;SDS011;11095;48.066;8.540;2022-12-29T18:07:53;3.17;;;2.58;;
21860;SDS011;11095;48.066;8.540;2022-12-29T18:10:21;4.15;;;2.78;;
21860;SDS011;11095;48.066;8.540;2022-12-29T18:12:49;4.15;;;2.80;;
21860;SDS011;11095;48.066;8.540;2022-12-29T18:17:59;3.30;;;2.45;;
21860;SDS011;11095;48.066;8.540;2022-12-29T18:20:30;4.53;;;2.85;;
21860;SDS011;11095;48.066;8.540;2022-12-29T18:22:56;4.30;;;2.80;;
21860;SDS011;11095;48.066;8.540;2022-12-29T18:25:29;3.25;;;2.58;;
21860;SDS011;11095;48.066;8.540;2022-12-29T18:28:00;4.72;;;3.10;;
21860;SDS011;11095;48.066;8.540;2022-12-29T18:30:26;5.63;;;3.40;;
21860;SDS011;11095;48.066;8.540;2022-12-29T18:32:52;5.05;;;3.25;;
21860;SDS011;11095;48.066;8.540;2022-12-29T18:37:51;3.75;;;2.90;;